createdAt,value
2023-10-25T00:02:45.115Z,71.77
2023-10-25T00:05:35.042Z,71.77
2023-10-25T00:08:21.814Z,72.15
2023-10-25T00:11:08.911Z,72.44
2023-10-25T00:13:55.662Z,72.18
2023-10-25T00:16:42.456Z,72.05
2023-10-25T00:19:29.296Z,72.00
2023-10-25T00:22:16.120Z,72.19
2023-10-25T00:25:02.940Z,71.86
2023-10-25T00:27:49.725Z,72.03
2023-10-25T00:30:36.811Z,71.88
2023-10-25T00:33:23.668Z,72.03
2023-10-25T00:36:10.451Z,71.89
2023-10-25T00:38:57.197Z,72.14
2023-10-25T00:41:43.993Z,72.21
2023-10-25T00:44:30.744Z,72.00
2023-10-25T00:47:17.538Z,71.67
2023-10-25T00:50:04.838Z,72.13
2023-10-25T00:52:51.605Z,72.29
2023-10-25T00:55:38.366Z,71.84
2023-10-25T00:58:25.267Z,71.89
2023-10-25T01:01:12.525Z,71.77
2023-10-25T01:03:59.506Z,71.90
2023-10-25T01:06:46.383Z,71.77
2023-10-25T01:09:33.272Z,71.92
2023-10-25T01:12:20.097Z,71.64
2023-10-25T01:15:07.110Z,71.97
2023-10-25T01:17:53.943Z,72.08
2023-10-25T01:20:40.776Z,71.95
2023-10-25T01:23:27.527Z,72.09
2023-10-25T01:26:14.248Z,71.72
2023-10-25T01:29:01.268Z,72.05
2023-10-25T01:31:48.064Z,71.82
2023-10-25T01:34:34.837Z,72.25
2023-10-25T01:37:21.566Z,72.00
2023-10-25T01:40:08.660Z,71.76
2023-10-25T01:42:55.570Z,71.84
2023-10-25T01:45:42.449Z,72.11
2023-10-25T01:48:29.310Z,71.81
2023-10-25T01:51:16.091Z,72.21
2023-10-25T01:54:02.845Z,71.69
2023-10-25T01:56:49.628Z,72.01
2023-10-25T01:59:36.423Z,72.25
2023-10-25T02:02:23.227Z,71.68
2023-10-25T02:05:09.942Z,72.00
2023-10-25T02:07:56.643Z,71.81
2023-10-25T02:10:43.407Z,72.07
2023-10-25T02:13:30.139Z,71.60
2023-10-25T02:16:18.166Z,71.88
2023-10-25T02:19:05.038Z,71.87
2023-10-25T02:21:51.955Z,71.67
2023-10-25T02:24:38.727Z,72.03
2023-10-25T02:27:25.472Z,71.80
2023-10-25T02:30:12.312Z,72.04
2023-10-25T02:32:59.142Z,71.82
2023-10-25T02:35:45.973Z,71.79
2023-10-25T02:38:32.762Z,71.75
2023-10-25T02:41:19.638Z,71.67
2023-10-25T02:44:06.486Z,71.53
2023-10-25T02:46:56.441Z,71.78
2023-10-25T02:49:43.387Z,71.74
2023-10-25T02:52:30.328Z,71.42
2023-10-25T02:55:17.130Z,71.69
2023-10-25T02:58:03.934Z,71.32
2023-10-25T03:00:50.774Z,71.84
2023-10-25T03:03:38.065Z,72.08
2023-10-25T03:06:24.873Z,71.75
2023-10-25T03:09:11.617Z,71.63
2023-10-25T03:11:59.309Z,71.97
2023-10-25T03:14:46.113Z,71.97
2023-10-25T03:17:32.955Z,71.51
2023-10-25T03:20:19.725Z,71.56
2023-10-25T03:23:06.454Z,71.79
2023-10-25T03:25:53.194Z,71.57
2023-10-25T03:28:41.265Z,72.04
2023-10-25T03:31:28.404Z,71.45
2023-10-25T03:34:15.904Z,71.64
2023-10-25T03:37:02.873Z,71.53
2023-10-25T03:39:50.004Z,71.82
2023-10-25T03:42:37.143Z,71.84
2023-10-25T03:45:23.999Z,71.91
2023-10-25T03:48:10.713Z,71.69
2023-10-25T03:50:58.096Z,71.79
2023-10-25T03:53:44.834Z,71.79
2023-10-25T03:56:31.597Z,71.86
2023-10-25T03:59:18.391Z,71.72
2023-10-25T04:02:05.385Z,71.50
2023-10-25T04:04:52.206Z,71.65
2023-10-25T04:07:40.129Z,71.84
2023-10-25T04:10:31.035Z,71.57
2023-10-25T04:13:19.710Z,71.52
2023-10-25T04:16:07.345Z,71.55
2023-10-25T04:18:54.180Z,71.41
2023-10-25T04:21:40.965Z,71.47
2023-10-25T04:24:27.751Z,71.53
2023-10-25T04:27:14.494Z,71.47
2023-10-25T04:30:02.727Z,71.51
2023-10-25T04:32:51.596Z,71.29
2023-10-25T04:35:38.425Z,71.16
2023-10-25T04:38:25.181Z,71.35
2023-10-25T04:41:12.206Z,71.24
2023-10-25T04:43:59.018Z,71.25
2023-10-25T04:46:45.874Z,71.17
2023-10-25T04:49:32.626Z,71.11
2023-10-25T04:52:20.408Z,71.22
2023-10-25T04:55:07.671Z,71.02
2023-10-25T04:57:54.525Z,71.06
2023-10-25T05:00:41.389Z,71.02
2023-10-25T05:03:28.386Z,71.06
2023-10-25T05:06:15.349Z,71.31
2023-10-25T05:09:02.305Z,71.07
2023-10-25T05:11:56.267Z,71.00
2023-10-25T05:14:43.237Z,70.89
2023-10-25T05:17:30.203Z,70.90
2023-10-25T05:20:17.265Z,70.92
2023-10-25T05:23:04.581Z,70.99
2023-10-25T05:25:51.448Z,70.80
2023-10-25T05:28:38.352Z,69.74
2023-10-25T05:31:25.148Z,69.53
2023-10-25T05:34:12.231Z,69.91
2023-10-25T05:36:59.108Z,70.09
2023-10-25T05:39:46.094Z,69.92
2023-10-25T05:42:33.053Z,69.52
2023-10-25T05:45:19.863Z,69.73
2023-10-25T05:48:10.653Z,69.51
2023-10-25T05:50:57.454Z,69.44
2023-10-25T05:53:44.290Z,69.22
2023-10-25T05:56:31.129Z,69.52
2023-10-25T05:59:17.926Z,69.55
2023-10-25T06:02:07.942Z,69.66
2023-10-25T06:04:56.433Z,69.42
2023-10-25T06:07:43.499Z,69.46
2023-10-25T06:10:30.847Z,69.37
2023-10-25T06:13:17.854Z,69.46
2023-10-25T06:16:04.771Z,69.36
2023-10-25T06:18:51.591Z,69.43
2023-10-25T06:21:38.469Z,69.50
2023-10-25T06:24:25.591Z,69.43
2023-10-25T06:27:12.384Z,69.30
2023-10-25T06:29:59.238Z,69.21
2023-10-25T06:32:46.190Z,69.26
2023-10-25T06:35:33.026Z,68.93
2023-10-25T06:38:19.865Z,69.40
2023-10-25T06:41:14.763Z,69.20
2023-10-25T06:44:01.915Z,69.23
2023-10-25T06:46:48.992Z,68.76
2023-10-25T06:49:35.961Z,68.78
2023-10-25T06:52:22.846Z,68.54
2023-10-25T06:55:10.189Z,68.62
2023-10-25T06:57:57.137Z,68.24
2023-10-25T07:00:44.115Z,68.29
2023-10-25T07:03:42.084Z,68.54
2023-10-25T07:06:29.035Z,68.29
2023-10-25T07:09:15.853Z,68.28
2023-10-25T07:12:02.632Z,68.29
2023-10-25T07:14:49.447Z,67.83
2023-10-25T07:17:36.310Z,67.97
2023-10-25T07:20:23.049Z,67.92
2023-10-25T07:23:10.031Z,68.02
2023-10-25T07:25:56.784Z,67.82
2023-10-25T07:28:43.516Z,67.69
2023-10-25T07:31:31.457Z,67.84
2023-10-25T07:34:18.805Z,67.68
2023-10-25T07:37:05.703Z,67.92
2023-10-25T07:39:52.585Z,68.04
2023-10-25T07:42:39.350Z,67.73
2023-10-25T07:45:26.084Z,67.93
2023-10-25T07:48:12.833Z,67.87
2023-10-25T07:51:03.379Z,67.72
2023-10-25T07:53:50.150Z,67.53
2023-10-25T07:57:09.977Z,67.58
2023-10-25T07:59:43.701Z,67.79
2023-10-25T08:02:30.718Z,67.65
2023-10-25T08:05:17.565Z,67.56
2023-10-25T08:08:04.475Z,67.66
2023-10-25T08:10:59.258Z,67.90
2023-10-25T08:13:45.993Z,68.06
2023-10-25T08:16:33.498Z,67.66
2023-10-25T08:19:20.516Z,67.91
2023-10-25T08:22:07.349Z,67.94
2023-10-25T08:24:54.103Z,67.76
2023-10-25T08:27:40.817Z,68.03
2023-10-25T08:30:28.669Z,68.02
2023-10-25T08:33:15.594Z,68.26
2023-10-25T08:36:03.124Z,68.27
2023-10-25T08:38:50.079Z,68.40
2023-10-25T08:41:37.329Z,68.59
2023-10-25T08:44:25.095Z,68.39
2023-10-25T08:47:13.051Z,68.36
2023-10-25T08:49:59.874Z,68.53
2023-10-25T08:52:49.315Z,68.38
2023-10-25T08:55:36.223Z,68.68
2023-10-25T08:58:25.184Z,68.74
2023-10-25T09:01:12.000Z,68.66
2023-10-25T09:03:59.080Z,68.92
2023-10-25T09:06:46.845Z,68.50
2023-10-25T09:09:40.491Z,68.72
2023-10-25T09:12:27.502Z,68.99
2023-10-25T09:15:14.278Z,68.66
2023-10-25T09:18:02.529Z,69.03
2023-10-25T09:21:03.972Z,68.92
2023-10-25T09:23:57.486Z,69.04
2023-10-25T09:26:44.334Z,69.02
2023-10-25T09:29:36.808Z,68.95
2023-10-25T09:32:23.707Z,69.23
2023-10-25T09:35:11.093Z,69.12
2023-10-25T09:37:57.912Z,69.25
2023-10-25T09:40:44.797Z,69.00
2023-10-25T09:43:31.526Z,69.01
2023-10-25T09:46:19.298Z,69.09
2023-10-25T09:49:08.016Z,69.22
2023-10-25T09:52:00.517Z,69.41
2023-10-25T09:54:54.255Z,69.43
2023-10-25T09:57:40.965Z,69.19
2023-10-25T10:00:29.162Z,69.14
2023-10-25T10:03:48.497Z,69.28
2023-10-25T10:06:45.794Z,69.35
2023-10-25T10:09:33.432Z,69.16
2023-10-25T10:12:20.332Z,69.19
2023-10-25T10:15:08.189Z,69.40
2023-10-25T10:17:55.042Z,69.12
2023-10-25T10:20:41.838Z,69.07
2023-10-25T10:23:38.406Z,69.17
2023-10-25T10:26:48.494Z,69.30
2023-10-25T10:29:35.409Z,69.08
2023-10-25T10:32:22.797Z,69.15
2023-10-25T10:35:09.619Z,69.12
2023-10-25T10:37:56.609Z,69.37
2023-10-25T10:40:43.342Z,69.16
2023-10-25T10:43:30.364Z,69.14
2023-10-25T10:46:17.179Z,69.16
2023-10-25T10:49:04.076Z,69.08
2023-10-25T10:51:50.838Z,69.35
2023-10-25T10:54:38.183Z,69.25
2023-10-25T10:57:25.794Z,69.32
2023-10-25T11:00:14.810Z,69.16
2023-10-25T11:03:05.507Z,69.04
2023-10-25T11:05:53.638Z,69.21
2023-10-25T11:08:40.440Z,69.02
2023-10-25T11:11:27.203Z,69.12
2023-10-25T11:14:14.192Z,68.97
2023-10-25T11:17:00.906Z,68.92
2023-10-25T11:19:48.592Z,69.24
2023-10-25T11:22:37.474Z,69.10
2023-10-25T11:25:27.830Z,68.90
2023-10-25T11:28:14.566Z,69.14
2023-10-25T11:31:02.268Z,69.20
2023-10-25T11:33:49.071Z,69.67
2023-10-25T11:36:35.836Z,69.77
2023-10-25T11:39:22.599Z,69.72
2023-10-25T11:42:09.329Z,69.79
2023-10-25T11:44:58.172Z,69.94
2023-10-25T11:47:46.413Z,70.03
2023-10-25T11:50:33.312Z,69.85
2023-10-25T11:53:20.186Z,70.37
2023-10-25T11:56:07.078Z,70.33
2023-10-25T11:58:53.843Z,70.05
2023-10-25T12:01:40.604Z,70.32
2023-10-25T12:04:27.388Z,70.01
2023-10-25T12:07:14.372Z,70.20
2023-10-25T12:10:01.164Z,70.13
2023-10-25T12:12:47.923Z,69.93
2023-10-25T12:15:34.786Z,69.73
2023-10-25T12:18:21.653Z,69.72
2023-10-25T12:21:09.558Z,69.46
2023-10-25T12:23:56.412Z,69.83
2023-10-25T12:26:43.158Z,69.87
2023-10-25T12:29:30.153Z,69.84
2023-10-25T12:32:20.107Z,69.97
2023-10-25T12:35:07.222Z,69.99
2023-10-25T12:37:53.987Z,69.81
2023-10-25T12:40:40.756Z,69.98
2023-10-25T12:43:28.019Z,69.86
2023-10-25T12:46:15.083Z,69.75
2023-10-25T12:49:01.869Z,69.79
2023-10-25T12:51:48.807Z,70.14
2023-10-25T12:54:35.628Z,70.19
2023-10-25T12:57:22.430Z,70.00
2023-10-25T13:00:09.823Z,70.80
2023-10-25T13:02:56.803Z,70.42
2023-10-25T13:05:43.687Z,70.36
2023-10-25T13:08:30.899Z,70.30
2023-10-25T13:11:17.798Z,70.06
2023-10-25T13:14:04.868Z,70.36
2023-10-25T13:16:56.408Z,70.47
2023-10-25T13:19:45.963Z,69.96
2023-10-25T13:22:32.791Z,70.42
2023-10-25T13:25:19.599Z,70.39
2023-10-25T13:28:06.755Z,70.50
2023-10-25T13:30:53.510Z,70.50
2023-10-25T13:33:40.543Z,70.24
2023-10-25T13:36:28.209Z,70.67
2023-10-25T13:39:15.012Z,70.63
2023-10-25T13:42:01.899Z,70.73
2023-10-25T13:44:48.704Z,70.10
2023-10-25T13:47:35.588Z,70.87
2023-10-25T13:50:22.621Z,70.73
2023-10-25T13:53:09.401Z,70.17
2023-10-25T13:55:56.270Z,70.84
2023-10-25T13:58:43.207Z,70.71
2023-10-25T14:01:30.011Z,71.67
2023-10-25T14:04:17.348Z,71.96
2023-10-25T14:07:07.192Z,71.82
2023-10-25T14:09:53.989Z,72.49
2023-10-25T14:12:40.786Z,72.95
2023-10-25T14:15:27.613Z,72.53
2023-10-25T14:18:14.489Z,72.92
2023-10-25T14:21:04.129Z,71.98
2023-10-25T14:23:52.567Z,71.62
2023-10-25T14:26:41.592Z,71.42
2023-10-25T14:29:28.990Z,71.13
2023-10-25T14:32:15.809Z,71.35
2023-10-25T14:35:02.570Z,70.87
2023-10-25T14:37:49.364Z,70.32
2023-10-25T14:40:39.728Z,70.96
2023-10-25T14:43:26.452Z,70.41
2023-10-25T14:46:14.165Z,70.82
2023-10-25T14:49:01.029Z,70.77
2023-10-25T14:51:47.801Z,72.02
2023-10-25T14:54:34.625Z,71.99
2023-10-25T14:57:21.340Z,72.05
2023-10-25T15:00:10.388Z,72.10
2023-10-25T15:02:58.147Z,72.48
2023-10-25T15:05:45.091Z,71.99
2023-10-25T15:08:32.009Z,72.08
2023-10-25T15:11:18.773Z,72.21
2023-10-25T15:14:05.617Z,71.81
2023-10-25T15:16:52.813Z,71.77
2023-10-25T15:19:39.638Z,71.45
2023-10-25T15:22:26.465Z,72.15
2023-10-25T15:25:13.223Z,71.51
2023-10-25T15:28:03.786Z,71.86
2023-10-25T15:30:51.810Z,72.15
2023-10-25T15:33:39.252Z,71.74
2023-10-25T15:36:26.115Z,71.98
2023-10-25T15:39:12.868Z,71.83
2023-10-25T15:41:59.717Z,72.38
2023-10-25T15:44:46.727Z,71.75
2023-10-25T15:47:33.843Z,71.61
2023-10-25T15:50:20.770Z,71.59
2023-10-25T15:53:16.676Z,72.24
2023-10-25T15:56:05.601Z,71.84
2023-10-25T15:58:52.373Z,72.13
2023-10-25T16:04:31.054Z,71.69
2023-10-25T16:07:17.998Z,71.77
2023-10-25T16:10:05.049Z,71.66
2023-10-25T16:12:51.846Z,71.75
2023-10-25T16:15:38.620Z,71.72
2023-10-25T16:18:25.491Z,71.44
2023-10-25T16:21:13.601Z,72.05
2023-10-25T16:24:00.595Z,72.05
2023-10-25T16:26:47.452Z,71.80
2023-10-25T16:29:34.277Z,71.80
2023-10-25T16:32:21.341Z,71.55
2023-10-25T16:35:08.496Z,72.10
2023-10-25T16:37:55.338Z,72.43
2023-10-25T16:40:42.161Z,71.54
2023-10-25T16:43:32.324Z,71.69
2023-10-25T16:46:19.676Z,72.17
2023-10-25T16:49:06.506Z,72.13
2023-10-25T16:51:53.271Z,71.66
2023-10-25T16:54:40.387Z,71.78
2023-10-25T16:57:27.118Z,71.82
2023-10-25T17:00:14.162Z,71.69
2023-10-25T17:03:04.137Z,72.37
2023-10-25T17:05:51.095Z,71.88
2023-10-25T17:08:38.158Z,71.65
2023-10-25T17:11:24.889Z,71.67
2023-10-25T17:14:11.663Z,71.91
2023-10-25T17:16:58.408Z,72.32
2023-10-25T17:19:45.545Z,71.71
2023-10-25T17:22:32.531Z,71.86
2023-10-25T17:25:19.345Z,72.09
2023-10-25T17:28:07.670Z,71.96
2023-10-25T17:30:54.483Z,71.61
2023-10-25T17:33:41.332Z,71.55
2023-10-25T17:36:28.463Z,72.01
2023-10-25T17:39:15.352Z,71.43
2023-10-25T17:42:02.235Z,71.89
2023-10-25T17:44:49.084Z,71.95
2023-10-25T17:47:49.680Z,71.68
2023-10-25T17:50:37.758Z,71.60
2023-10-25T17:53:25.151Z,72.05
2023-10-25T17:56:11.916Z,71.74
2023-10-25T17:58:58.720Z,71.74
2023-10-25T18:01:45.492Z,72.06
2023-10-25T18:04:32.326Z,72.10
2023-10-25T18:07:19.116Z,72.26
2023-10-25T18:10:06.021Z,71.97
2023-10-25T18:12:52.759Z,72.82
2023-10-25T18:15:39.749Z,71.91
2023-10-25T18:18:27.253Z,72.10
2023-10-25T18:21:14.170Z,72.38
2023-10-25T18:24:01.047Z,72.37
2023-10-25T18:26:47.889Z,72.41
2023-10-25T18:29:37.261Z,72.08
2023-10-25T18:32:42.431Z,72.42
2023-10-25T18:35:30.238Z,72.36
2023-10-25T18:38:18.248Z,72.76
2023-10-25T18:41:05.465Z,72.44
2023-10-25T18:43:52.281Z,72.40
2023-10-25T18:46:39.134Z,72.43
2023-10-25T18:49:26.294Z,72.05
2023-10-25T18:52:13.316Z,72.75
2023-10-25T18:55:00.269Z,72.83
2023-10-25T18:57:47.249Z,72.43
2023-10-25T19:00:34.906Z,72.26
2023-10-25T19:03:22.970Z,72.10
2023-10-25T19:06:25.519Z,71.97
2023-10-25T19:09:16.916Z,72.26
2023-10-25T19:12:03.913Z,71.64
2023-10-25T19:14:51.266Z,71.73
2023-10-25T19:17:38.266Z,71.77
2023-10-25T19:20:26.998Z,71.72
2023-10-25T19:23:13.773Z,72.08
2023-10-25T19:26:00.565Z,72.07
2023-10-25T19:28:47.338Z,71.80
2023-10-25T19:31:38.232Z,71.75
2023-10-25T19:34:25.154Z,72.08
2023-10-25T19:37:11.948Z,72.35
2023-10-25T19:39:58.712Z,71.93
2023-10-25T19:42:45.464Z,71.97
2023-10-25T19:45:35.582Z,71.88
2023-10-25T19:48:22.326Z,71.92
2023-10-25T19:51:09.179Z,72.24
2023-10-25T19:53:56.068Z,72.12
2023-10-25T19:56:42.949Z,72.21
2023-10-25T19:59:29.691Z,71.61
2023-10-25T20:02:16.429Z,71.39
2023-10-25T20:05:03.595Z,71.65
2023-10-25T20:07:50.324Z,71.77
2023-10-25T20:10:37.045Z,71.52
2023-10-25T20:13:23.768Z,71.78
2023-10-25T20:16:10.545Z,71.29
2023-10-25T20:18:57.376Z,71.67
2023-10-25T20:21:44.704Z,71.77
2023-10-25T20:24:32.735Z,71.14
2023-10-25T20:27:19.559Z,71.22
2023-10-25T20:30:06.656Z,72.05
2023-10-25T20:32:53.474Z,71.88
2023-10-25T20:35:40.342Z,71.52
2023-10-25T20:38:27.627Z,71.90
2023-10-25T20:41:14.409Z,71.28
2023-10-25T20:44:02.060Z,71.60
2023-10-25T20:46:48.795Z,71.60
2023-10-25T20:49:35.539Z,72.13
2023-10-25T20:52:22.340Z,72.34
2023-10-25T20:55:09.128Z,71.86
2023-10-25T20:57:55.884Z,72.16
2023-10-25T21:00:42.648Z,71.91
2023-10-25T21:03:29.526Z,71.75
2023-10-25T21:06:16.503Z,71.94
2023-10-25T21:09:04.738Z,71.61
2023-10-25T21:11:51.807Z,72.45
2023-10-25T21:14:38.918Z,72.49
2023-10-25T21:17:25.769Z,72.10
2023-10-25T21:20:12.757Z,72.05
2023-10-25T21:22:59.770Z,72.21
2023-10-25T21:25:46.584Z,71.57
2023-10-25T21:28:33.361Z,71.84
2023-10-25T21:31:20.153Z,71.73
2023-10-25T21:34:06.928Z,71.70
2023-10-25T21:36:53.795Z,72.07
2023-10-25T21:39:40.508Z,71.28
2023-10-25T21:42:27.342Z,71.63
2023-10-25T21:45:14.279Z,71.30
2023-10-25T21:48:01.163Z,71.35
2023-10-25T21:50:57.654Z,71.37
2023-10-25T21:53:45.606Z,71.07
2023-10-25T21:56:32.426Z,71.68
2023-10-25T21:59:48.633Z,71.21
2023-10-25T22:02:27.073Z,71.28
2023-10-25T22:05:14.441Z,71.40
2023-10-25T22:08:01.237Z,71.33
2023-10-25T22:10:48.010Z,71.24
2023-10-25T22:13:35.050Z,71.35
2023-10-25T22:16:21.823Z,70.94
2023-10-25T22:19:08.651Z,71.24
2023-10-25T22:21:55.445Z,71.32
2023-10-25T22:24:42.550Z,70.90
2023-10-25T22:27:30.093Z,71.20
2023-10-25T22:30:16.956Z,71.35
2023-10-25T22:33:03.948Z,71.27
2023-10-25T22:35:50.965Z,70.69
2023-10-25T22:38:38.013Z,70.47
2023-10-25T22:41:27.726Z,71.00
2023-10-25T22:44:14.787Z,70.79
2023-10-25T22:47:01.598Z,71.23
2023-10-25T22:49:48.337Z,71.03
2023-10-25T22:52:35.136Z,71.12
2023-10-25T22:55:21.918Z,70.81
2023-10-25T22:58:08.728Z,70.71
2023-10-25T23:00:55.449Z,70.44
2023-10-25T23:03:42.264Z,70.84
2023-10-25T23:06:29.179Z,70.81
2023-10-25T23:09:15.984Z,70.92
2023-10-25T23:12:02.777Z,70.87
2023-10-25T23:14:49.577Z,70.99
2023-10-25T23:17:36.488Z,70.39
2023-10-25T23:20:23.248Z,70.61
2023-10-25T23:23:10.009Z,70.76
2023-10-25T23:25:56.908Z,70.44
2023-10-25T23:28:43.690Z,70.57
2023-10-25T23:31:30.509Z,70.25
2023-10-25T23:34:17.318Z,70.53
2023-10-25T23:37:04.101Z,70.22
2023-10-25T23:39:50.810Z,70.12
2023-10-25T23:42:37.555Z,70.31
2023-10-25T23:45:24.317Z,70.56
2023-10-25T23:48:11.218Z,70.19
2023-10-25T23:50:58.056Z,70.16
2023-10-25T23:53:44.797Z,70.23
2023-10-25T23:56:33.844Z,70.46
2023-10-25T23:59:23.583Z,70.30
